createdAt,value
2017-06-24T00:00:05.531Z,49.10
2017-06-24T00:02:34.575Z,49.30
2017-06-24T00:05:03.015Z,49.30
2017-06-24T00:07:32.039Z,49.60
2017-06-24T00:10:00.401Z,49.60
2017-06-24T00:12:28.700Z,50.00
2017-06-24T00:14:57.057Z,49.60
2017-06-24T00:17:25.365Z,49.80
2017-06-24T00:19:53.658Z,49.20
2017-06-24T00:22:21.947Z,48.90
2017-06-24T00:24:51.019Z,48.30
2017-06-24T00:27:19.312Z,48.20
2017-06-24T00:29:48.365Z,48.90
2017-06-24T00:32:17.472Z,47.90
2017-06-24T00:34:45.752Z,48.30
2017-06-24T00:37:14.043Z,48.10
2017-06-24T00:39:42.324Z,48.20
2017-06-24T00:42:10.605Z,48.30
2017-06-24T00:44:38.891Z,48.50
2017-06-24T00:47:07.173Z,48.80
2017-06-24T00:49:36.236Z,49.20
2017-06-24T00:52:04.504Z,49.10
2017-06-24T00:54:32.804Z,49.30
2017-06-24T00:57:01.075Z,49.30
2017-06-24T00:59:29.367Z,49.40
2017-06-24T01:01:57.644Z,49.50
2017-06-24T01:04:25.936Z,49.90
2017-06-24T01:06:54.208Z,50.00
2017-06-24T01:09:22.487Z,50.00
2017-06-24T01:11:50.779Z,50.10
2017-06-24T01:14:19.816Z,50.40
2017-06-24T01:16:48.119Z,50.40
2017-06-24T01:19:16.376Z,50.30
2017-06-24T01:21:44.677Z,50.60
2017-06-24T01:24:12.951Z,50.80
2017-06-24T01:26:41.239Z,50.80
2017-06-24T01:29:09.511Z,51.00
2017-06-24T01:31:37.817Z,50.80
2017-06-24T01:34:06.855Z,51.20
2017-06-24T01:36:35.125Z,51.10
2017-06-24T01:39:03.404Z,51.30
2017-06-24T01:41:31.670Z,51.30
2017-06-24T01:43:59.956Z,51.30
2017-06-24T01:46:28.227Z,51.40
2017-06-24T01:48:56.513Z,51.50
2017-06-24T01:51:24.783Z,51.50
2017-06-24T01:53:53.072Z,51.50
2017-06-24T01:56:21.348Z,51.40
2017-06-24T01:58:49.635Z,51.30
2017-06-24T02:01:17.924Z,51.20
2017-06-24T02:03:46.223Z,51.10
2017-06-24T02:06:14.499Z,51.30
2017-06-24T02:08:42.787Z,50.90
2017-06-24T02:11:11.077Z,50.70
2017-06-24T02:13:40.116Z,50.50
2017-06-24T02:16:08.407Z,50.50
2017-06-24T02:18:36.670Z,50.40
2017-06-24T02:21:04.982Z,50.90
2017-06-24T02:23:33.256Z,50.30
2017-06-24T02:26:01.547Z,50.20
2017-06-24T02:28:29.823Z,50.30
2017-06-24T02:30:58.121Z,50.40
2017-06-24T02:33:27.155Z,50.60
2017-06-24T02:35:55.427Z,50.60
2017-06-24T02:38:23.715Z,50.70
2017-06-24T02:40:51.980Z,50.60
2017-06-24T02:43:20.268Z,50.80
2017-06-24T02:45:48.540Z,51.00
2017-06-24T02:48:16.827Z,51.10
2017-06-24T02:50:45.103Z,51.10
2017-06-24T02:53:13.392Z,51.20
2017-06-24T02:55:41.663Z,51.30
2017-06-24T02:58:09.955Z,51.30
2017-06-24T03:00:38.223Z,51.20
2017-06-24T03:03:06.501Z,51.50
2017-06-24T03:05:34.788Z,51.70
2017-06-24T03:08:03.052Z,51.80
2017-06-24T03:10:31.346Z,52.00
2017-06-24T03:12:59.619Z,52.10
2017-06-24T03:15:27.919Z,52.10
2017-06-24T03:17:56.187Z,52.30
2017-06-24T03:20:25.239Z,52.30
2017-06-24T03:22:53.516Z,52.30
2017-06-24T03:25:21.806Z,52.50
2017-06-24T03:27:50.074Z,52.60
2017-06-24T03:30:18.363Z,53.00
2017-06-24T03:32:46.712Z,53.10
2017-06-24T03:35:15.004Z,53.30
2017-06-24T03:37:43.279Z,53.30
2017-06-24T03:40:11.598Z,53.10
2017-06-24T03:42:39.880Z,53.10
2017-06-24T03:45:08.909Z,53.70
2017-06-24T03:47:37.198Z,53.70
2017-06-24T03:50:05.464Z,53.50
2017-06-24T03:52:33.751Z,53.60
2017-06-24T03:55:02.027Z,53.50
2017-06-24T03:57:30.311Z,53.30
2017-06-24T03:59:58.571Z,53.50
2017-06-24T04:02:26.899Z,53.50
2017-06-24T04:04:55.263Z,53.50
2017-06-24T04:07:23.553Z,53.40
2017-06-24T04:09:51.823Z,53.90
2017-06-24T04:12:20.119Z,53.60
2017-06-24T04:14:49.158Z,53.80
2017-06-24T04:17:17.431Z,53.20
2017-06-24T04:19:45.741Z,53.10
2017-06-24T04:22:14.007Z,53.20
2017-06-24T04:24:42.304Z,53.00
2017-06-24T04:27:10.573Z,53.00
2017-06-24T04:29:38.855Z,52.90
2017-06-24T04:32:07.127Z,53.10
2017-06-24T04:34:35.420Z,52.70
2017-06-24T04:37:03.679Z,52.90
2017-06-24T04:39:31.960Z,52.80
2017-06-24T04:42:00.233Z,52.70
2017-06-24T04:44:28.517Z,52.70
2017-06-24T04:46:56.784Z,53.20
2017-06-24T04:49:25.052Z,52.60
2017-06-24T04:51:53.335Z,52.70
2017-06-24T04:54:21.603Z,52.50
2017-06-24T04:56:49.899Z,52.30
2017-06-24T04:59:18.182Z,52.10
2017-06-24T05:01:46.470Z,51.80
2017-06-24T05:04:14.736Z,51.80
2017-06-24T05:06:43.018Z,51.80
2017-06-24T05:09:11.289Z,52.00
2017-06-24T05:11:39.585Z,52.10
2017-06-24T05:14:07.855Z,52.20
2017-06-24T05:16:36.139Z,51.60
2017-06-24T05:19:05.170Z,51.40
2017-06-24T05:21:33.443Z,50.70
2017-06-24T05:24:01.731Z,50.00
2017-06-24T05:26:30.008Z,49.10
2017-06-24T05:28:58.300Z,48.00
2017-06-24T05:31:26.567Z,47.40
2017-06-24T05:33:54.871Z,47.10
2017-06-24T05:36:23.161Z,46.60
2017-06-24T05:38:51.459Z,45.50
2017-06-24T05:41:20.511Z,44.20
2017-06-24T05:43:48.807Z,44.20
2017-06-24T05:46:17.089Z,43.50
2017-06-24T05:48:45.374Z,43.10
2017-06-24T05:51:13.651Z,43.00
2017-06-24T05:53:41.924Z,43.70
2017-06-24T05:56:10.211Z,43.00
2017-06-24T05:58:39.243Z,42.90
2017-06-24T06:01:07.887Z,42.90
2017-06-24T06:03:36.163Z,42.50
2017-06-24T06:06:05.223Z,42.80
2017-06-24T06:08:33.499Z,42.20
2017-06-24T06:11:01.778Z,42.00
2017-06-24T06:13:30.056Z,41.30
2017-06-24T06:15:58.347Z,40.90
2017-06-24T06:18:26.620Z,40.40
2017-06-24T06:20:54.895Z,40.20
2017-06-24T06:23:23.181Z,39.50
2017-06-24T06:25:51.448Z,39.70
2017-06-24T06:28:19.748Z,39.10
2017-06-24T06:30:48.031Z,39.40
2017-06-24T06:33:16.340Z,38.80
2017-06-24T06:35:44.699Z,38.90
2017-06-24T06:38:13.760Z,38.00
2017-06-24T06:40:42.054Z,38.00
2017-06-24T06:43:10.303Z,38.10
2017-06-24T06:45:38.592Z,38.10
2017-06-24T06:48:06.863Z,37.60
2017-06-24T06:50:35.175Z,37.30
2017-06-24T06:53:04.490Z,37.60
2017-06-24T06:55:33.535Z,36.50
2017-06-24T06:58:01.814Z,36.60
2017-06-24T07:00:30.095Z,36.50
2017-06-24T07:02:58.362Z,36.70
2017-06-24T07:05:26.647Z,36.80
2017-06-24T07:07:54.911Z,37.30
2017-06-24T07:10:23.186Z,36.80
2017-06-24T07:12:51.479Z,36.60
2017-06-24T07:15:19.752Z,36.40
2017-06-24T07:17:48.036Z,36.70
2017-06-24T07:20:16.312Z,37.40
2017-06-24T07:22:44.607Z,37.10
2017-06-24T07:25:12.867Z,36.80
2017-06-24T07:27:41.141Z,37.10
2017-06-24T07:30:09.412Z,36.70
2017-06-24T07:32:37.690Z,37.10
2017-06-24T07:35:05.990Z,37.60
2017-06-24T07:37:34.299Z,37.70
2017-06-24T07:40:02.575Z,37.50
2017-06-24T07:42:30.845Z,38.10
2017-06-24T07:44:59.143Z,38.70
2017-06-24T07:47:27.414Z,38.50
2017-06-24T07:49:55.703Z,38.80
2017-06-24T07:52:23.991Z,38.30
2017-06-24T07:54:52.291Z,39.10
2017-06-24T07:57:20.563Z,38.60
2017-06-24T07:59:48.858Z,38.90
2017-06-24T08:02:17.136Z,39.00
2017-06-24T08:04:45.419Z,38.60
2017-06-24T08:07:13.699Z,39.00
2017-06-24T08:09:41.968Z,39.30
2017-06-24T08:12:10.250Z,39.80
2017-06-24T08:14:38.520Z,40.40
2017-06-24T08:17:06.819Z,40.80
2017-06-24T08:19:35.871Z,42.20
2017-06-24T08:22:04.174Z,42.20
2017-06-24T08:24:32.443Z,42.70
2017-06-24T08:27:00.739Z,43.00
2017-06-24T08:29:29.012Z,42.90
2017-06-24T08:31:57.291Z,42.20
2017-06-24T08:34:26.351Z,42.40
2017-06-24T08:36:54.631Z,42.40
2017-06-24T08:39:22.925Z,43.10
2017-06-24T08:41:51.208Z,43.20
2017-06-24T08:44:19.496Z,42.40
2017-06-24T08:46:48.540Z,41.80
2017-06-24T08:49:16.830Z,41.70
2017-06-24T08:51:45.099Z,41.70
2017-06-24T08:54:13.398Z,41.20
2017-06-24T08:56:41.671Z,40.40
2017-06-24T08:59:09.943Z,40.30
2017-06-24T09:01:38.236Z,39.80
2017-06-24T09:04:06.740Z,39.80
2017-06-24T09:06:35.796Z,40.50
2017-06-24T09:09:04.098Z,40.50
2017-06-24T09:11:32.387Z,40.70
2017-06-24T09:14:01.447Z,40.00
2017-06-24T09:16:29.736Z,40.00
2017-06-24T09:18:58.035Z,39.60
2017-06-24T09:21:26.377Z,39.90
2017-06-24T09:23:54.651Z,40.50
2017-06-24T09:26:22.959Z,39.80
2017-06-24T09:28:51.233Z,39.00
2017-06-24T09:31:19.529Z,38.30
2017-06-24T09:33:47.799Z,38.70
2017-06-24T09:36:16.066Z,39.10
2017-06-24T09:38:44.350Z,39.40
2017-06-24T09:41:12.634Z,38.70
2017-06-24T09:43:40.920Z,39.10
2017-06-24T09:46:09.955Z,38.20
2017-06-24T09:48:38.247Z,38.10
2017-06-24T09:51:06.963Z,37.70
2017-06-24T09:53:35.236Z,37.90
2017-06-24T09:56:03.511Z,38.10
2017-06-24T09:58:31.807Z,37.90
2017-06-24T10:01:00.857Z,37.60
2017-06-24T10:03:29.144Z,37.60
2017-06-24T10:05:57.413Z,37.90
2017-06-24T10:08:25.692Z,38.40
2017-06-24T10:10:53.963Z,38.60
2017-06-24T10:13:22.270Z,38.70
2017-06-24T10:15:50.539Z,38.40
2017-06-24T10:18:18.830Z,38.50
2017-06-24T10:20:47.107Z,38.90
2017-06-24T10:23:15.379Z,38.60
2017-06-24T10:25:43.679Z,37.80
2017-06-24T10:28:12.743Z,38.00
2017-06-24T10:30:41.028Z,38.00
2017-06-24T10:33:09.312Z,37.30
2017-06-24T10:35:37.619Z,37.40
2017-06-24T10:38:05.894Z,37.90
2017-06-24T10:40:34.165Z,37.80
2017-06-24T10:43:03.231Z,37.60
2017-06-24T10:45:31.539Z,37.60
2017-06-24T10:47:59.849Z,36.50
2017-06-24T10:50:28.172Z,37.20
2017-06-24T10:52:56.456Z,36.80
2017-06-24T10:55:24.734Z,36.70
2017-06-24T10:57:53.044Z,36.10
2017-06-24T11:00:21.352Z,36.70
2017-06-24T11:02:49.773Z,36.10
2017-06-24T11:05:18.251Z,35.70
2017-06-24T11:07:46.843Z,35.90
2017-06-24T11:10:15.896Z,35.80
2017-06-24T11:12:44.167Z,36.10
2017-06-24T11:15:12.453Z,35.70
2017-06-24T11:17:41.136Z,35.20
2017-06-24T11:20:09.439Z,35.10
2017-06-24T11:22:37.702Z,34.90
2017-06-24T11:25:06.003Z,35.40
2017-06-24T11:27:35.037Z,36.00
2017-06-24T11:30:03.439Z,35.50
2017-06-24T11:32:31.760Z,35.30
2017-06-24T11:35:00.019Z,35.50
2017-06-24T11:37:28.329Z,35.00
2017-06-24T11:39:56.606Z,34.90
2017-06-24T11:42:24.915Z,34.50
2017-06-24T11:44:53.183Z,34.20
2017-06-24T11:47:21.522Z,34.00
2017-06-24T11:49:49.803Z,34.80
2017-06-24T11:52:18.102Z,36.50
2017-06-24T11:54:46.395Z,36.70
2017-06-24T11:57:14.704Z,36.40
2017-06-24T11:59:42.977Z,36.20
2017-06-24T12:02:11.299Z,35.70
2017-06-24T12:04:39.651Z,36.40
2017-06-24T12:07:07.931Z,36.30
2017-06-24T12:09:36.246Z,35.10
2017-06-24T12:12:04.888Z,34.80
2017-06-24T12:14:33.221Z,35.50
2017-06-24T12:17:01.693Z,35.50
2017-06-24T12:19:29.999Z,35.50
2017-06-24T12:21:58.263Z,35.70
2017-06-24T12:24:26.584Z,35.30
2017-06-24T12:26:54.858Z,35.00
2017-06-24T12:29:23.203Z,35.80
2017-06-24T12:31:51.476Z,36.10
2017-06-24T12:34:19.792Z,35.70
2017-06-24T12:36:48.068Z,36.00
2017-06-24T12:39:16.344Z,35.40
2017-06-24T12:41:44.651Z,35.80
2017-06-24T12:44:13.691Z,35.50
2017-06-24T12:46:41.984Z,35.40
2017-06-24T12:49:10.260Z,36.10
2017-06-24T12:51:38.548Z,35.60
2017-06-24T12:54:06.827Z,36.00
2017-06-24T12:56:35.115Z,35.80
2017-06-24T12:59:03.390Z,36.10
2017-06-24T13:01:31.692Z,35.80
2017-06-24T13:03:59.984Z,35.50
2017-06-24T13:06:29.080Z,35.80
2017-06-24T13:08:57.359Z,35.90
2017-06-24T13:11:25.630Z,35.50
2017-06-24T13:13:53.922Z,35.80
2017-06-24T13:16:22.188Z,36.50
2017-06-24T13:18:50.479Z,36.40
2017-06-24T13:21:18.747Z,36.10
2017-06-24T13:23:47.039Z,37.00
2017-06-24T13:26:15.308Z,37.50
2017-06-24T13:28:43.608Z,37.40
2017-06-24T13:31:11.881Z,36.40
2017-06-24T13:33:40.169Z,36.70
2017-06-24T13:36:08.440Z,36.20
2017-06-24T13:38:36.720Z,36.60
2017-06-24T13:41:04.998Z,36.70
2017-06-24T13:43:34.916Z,35.90
2017-06-24T13:46:03.179Z,35.90
2017-06-24T13:48:31.444Z,36.30
2017-06-24T13:50:59.735Z,36.60
2017-06-24T13:53:28.012Z,36.30
2017-06-24T13:55:56.298Z,37.10
2017-06-24T13:58:24.563Z,37.10
2017-06-24T14:00:52.877Z,37.60
2017-06-24T14:03:21.144Z,38.20
2017-06-24T14:05:49.436Z,38.10
2017-06-24T14:08:17.713Z,38.00
2017-06-24T14:10:46.823Z,38.20
2017-06-24T14:13:15.870Z,38.90
2017-06-24T14:15:44.155Z,38.90
2017-06-24T14:18:12.419Z,38.20
2017-06-24T14:20:40.728Z,38.50
2017-06-24T14:23:09.009Z,39.00
2017-06-24T14:25:37.284Z,38.70
2017-06-24T14:28:05.600Z,38.70
2017-06-24T14:30:33.842Z,39.10
2017-06-24T14:33:02.139Z,39.70
2017-06-24T14:35:30.410Z,39.60
2017-06-24T14:37:58.696Z,39.30
2017-06-24T14:40:26.969Z,39.50
2017-06-24T14:42:56.027Z,39.70
2017-06-24T14:45:24.305Z,39.80
2017-06-24T14:47:52.582Z,39.60
2017-06-24T14:50:20.869Z,39.40
2017-06-24T14:52:49.177Z,39.30
2017-06-24T14:55:18.222Z,39.70
2017-06-24T14:57:46.543Z,39.60
2017-06-24T15:00:15.588Z,39.70
2017-06-24T15:02:43.920Z,39.70
2017-06-24T15:05:12.215Z,39.50
2017-06-24T15:07:40.488Z,39.20
2017-06-24T15:10:08.785Z,39.30
2017-06-24T15:12:37.055Z,39.00
2017-06-24T15:15:05.348Z,39.30
2017-06-24T15:17:33.620Z,39.60
2017-06-24T15:20:01.909Z,39.40
2017-06-24T15:22:30.180Z,39.60
2017-06-24T15:24:58.475Z,39.50
2017-06-24T15:27:26.751Z,39.70
2017-06-24T15:29:55.063Z,39.50
2017-06-24T15:32:24.099Z,39.50
2017-06-24T15:34:52.367Z,39.50
2017-06-24T15:37:20.659Z,39.50
2017-06-24T15:39:48.939Z,39.40
2017-06-24T15:42:17.229Z,39.60
2017-06-24T15:44:45.500Z,39.60
2017-06-24T15:47:13.787Z,39.90
2017-06-24T15:49:42.060Z,39.50
2017-06-24T15:52:10.344Z,39.50
2017-06-24T15:54:38.612Z,40.20
2017-06-24T15:57:06.887Z,39.80
2017-06-24T15:59:35.162Z,40.00
2017-06-24T16:02:03.452Z,39.80
2017-06-24T16:04:31.715Z,40.10
2017-06-24T16:07:00.012Z,39.90
2017-06-24T16:09:28.289Z,39.80
2017-06-24T16:11:56.548Z,39.80
2017-06-24T16:14:24.836Z,39.70
2017-06-24T16:16:53.107Z,39.80
2017-06-24T16:19:21.411Z,40.00
2017-06-24T16:21:50.450Z,40.00
2017-06-24T16:24:18.743Z,40.00
2017-06-24T16:26:47.032Z,40.20
2017-06-24T16:29:15.328Z,40.40
2017-06-24T16:31:43.614Z,40.50
2017-06-24T16:34:11.906Z,40.50
2017-06-24T16:36:40.950Z,40.50
2017-06-24T16:39:09.231Z,40.50
2017-06-24T16:41:37.500Z,40.60
2017-06-24T16:44:05.816Z,40.60
2017-06-24T16:46:34.111Z,40.40
2017-06-24T16:49:03.162Z,40.60
2017-06-24T16:51:31.469Z,40.60
2017-06-24T16:53:59.759Z,40.30
2017-06-24T16:56:28.819Z,40.80
2017-06-24T16:58:57.091Z,40.70
2017-06-24T17:01:25.379Z,40.70
2017-06-24T17:03:53.653Z,40.40
2017-06-24T17:06:21.939Z,40.20
2017-06-24T17:08:50.204Z,40.50
2017-06-24T17:11:18.494Z,40.80
2017-06-24T17:13:46.774Z,40.90
2017-06-24T17:16:15.065Z,40.00
2017-06-24T17:18:44.112Z,40.10
2017-06-24T17:21:12.403Z,40.20
2017-06-24T17:23:40.686Z,40.30
2017-06-24T17:26:08.970Z,39.90
2017-06-24T17:28:37.259Z,40.00
2017-06-24T17:31:05.535Z,39.80
2017-06-24T17:33:33.825Z,40.00
2017-06-24T17:36:02.871Z,40.70
2017-06-24T17:38:31.167Z,40.10
2017-06-24T17:40:59.440Z,40.40
2017-06-24T17:43:27.720Z,40.50
2017-06-24T17:45:55.996Z,40.60
2017-06-24T17:48:24.287Z,40.70
2017-06-24T17:50:52.573Z,40.90
2017-06-24T17:53:20.863Z,40.50
2017-06-24T17:55:49.908Z,40.70
2017-06-24T17:58:18.219Z,40.60
2017-06-24T18:00:46.500Z,40.50
2017-06-24T18:03:15.544Z,41.40
2017-06-24T18:05:43.839Z,40.80
2017-06-24T18:08:12.122Z,40.90
2017-06-24T18:10:40.415Z,40.80
2017-06-24T18:13:08.696Z,40.70
2017-06-24T18:15:36.996Z,40.50
2017-06-24T18:18:06.039Z,40.30
2017-06-24T18:20:34.336Z,40.30
2017-06-24T18:23:02.611Z,40.30
2017-06-24T18:25:30.910Z,40.00
2017-06-24T18:27:59.951Z,40.80
2017-06-24T18:30:28.242Z,40.30
2017-06-24T18:32:56.543Z,40.40
2017-06-24T18:35:24.852Z,40.30
2017-06-24T18:37:53.131Z,40.70
2017-06-24T18:40:22.183Z,40.80
2017-06-24T18:42:50.479Z,40.80
2017-06-24T18:45:18.755Z,40.70
2017-06-24T18:47:47.151Z,40.60
2017-06-24T18:50:16.195Z,41.10
2017-06-24T18:52:44.489Z,41.10
2017-06-24T18:55:12.783Z,41.20
2017-06-24T18:57:41.072Z,41.40
2017-06-24T19:00:10.110Z,41.70
2017-06-24T19:02:38.405Z,41.40
2017-06-24T19:05:06.667Z,41.30
2017-06-24T19:07:34.971Z,41.30
2017-06-24T19:10:03.251Z,41.40
2017-06-24T19:12:31.523Z,41.40
2017-06-24T19:14:59.832Z,41.50
2017-06-24T19:17:28.878Z,41.40
2017-06-24T19:19:57.176Z,41.40
2017-06-24T19:23:03.098Z,41.30
2017-06-24T19:25:31.384Z,41.60
2017-06-24T19:27:59.655Z,41.70
2017-06-24T19:30:27.948Z,41.70
2017-06-24T19:32:56.212Z,41.70
2017-06-24T19:35:24.514Z,41.80
2017-06-24T19:37:52.794Z,41.90
2017-06-24T19:40:21.078Z,41.90
2017-06-24T19:42:49.347Z,41.90
2017-06-24T19:45:17.636Z,41.80
2017-06-24T19:47:45.903Z,41.90
2017-06-24T19:50:14.205Z,42.00
2017-06-24T19:52:42.479Z,42.30
2017-06-24T19:55:10.748Z,42.30
2017-06-24T19:57:39.032Z,42.70
2017-06-24T20:00:07.387Z,42.60
2017-06-24T20:02:35.688Z,42.70
2017-06-24T20:05:03.960Z,42.70
2017-06-24T20:07:32.235Z,42.70
2017-06-24T20:10:00.517Z,42.70
2017-06-24T20:12:28.805Z,42.80
2017-06-24T20:14:57.072Z,42.70
2017-06-24T20:17:25.352Z,42.60
2017-06-24T20:19:53.620Z,42.70
2017-06-24T20:22:21.928Z,42.60
2017-06-24T20:24:50.198Z,42.70
2017-06-24T20:27:18.566Z,43.30
2017-06-24T20:29:46.837Z,42.70
2017-06-24T20:32:15.099Z,42.70
2017-06-24T20:34:43.415Z,42.60
2017-06-24T20:37:11.703Z,42.90
2017-06-24T20:39:40.769Z,43.30
2017-06-24T20:42:09.035Z,43.30
2017-06-24T20:44:37.339Z,44.10
2017-06-24T20:47:06.379Z,44.80
2017-06-24T20:49:34.683Z,44.80
2017-06-24T20:52:02.948Z,44.90
2017-06-24T20:54:31.235Z,44.70
2017-06-24T20:56:59.505Z,44.70
2017-06-24T20:59:27.793Z,45.00
2017-06-24T21:01:56.061Z,45.60
2017-06-24T21:04:24.334Z,45.70
2017-06-24T21:06:52.620Z,46.00
2017-06-24T21:09:20.887Z,46.10
2017-06-24T21:11:49.207Z,46.10
2017-06-24T21:14:18.236Z,46.50
2017-06-24T21:16:46.533Z,46.50
2017-06-24T21:19:14.884Z,46.60
2017-06-24T21:21:43.167Z,46.70
2017-06-24T21:24:11.435Z,46.90
2017-06-24T21:26:39.724Z,47.10
2017-06-24T21:29:07.996Z,47.40
2017-06-24T21:31:36.286Z,47.50
2017-06-24T21:34:04.558Z,47.50
2017-06-24T21:36:32.827Z,47.60
2017-06-24T21:39:01.119Z,47.70
2017-06-24T21:41:29.382Z,47.70
2017-06-24T21:43:57.663Z,48.00
2017-06-24T21:46:25.935Z,48.50
2017-06-24T21:48:54.223Z,48.60
2017-06-24T21:51:22.490Z,49.00
2017-06-24T21:53:50.755Z,49.10
2017-06-24T21:56:19.051Z,49.20
2017-06-24T21:58:47.327Z,49.20
2017-06-24T22:01:15.616Z,49.50
2017-06-24T22:03:43.887Z,49.60
2017-06-24T22:06:12.176Z,49.70
2017-06-24T22:08:40.436Z,50.00
2017-06-24T22:11:08.732Z,50.20
2017-06-24T22:13:37.008Z,50.30
2017-06-24T22:16:05.291Z,50.40
2017-06-24T22:18:33.570Z,50.40
2017-06-24T22:21:01.863Z,50.40
2017-06-24T22:23:30.139Z,50.30
2017-06-24T22:25:58.415Z,50.60
2017-06-24T22:28:26.708Z,50.30
2017-06-24T22:30:54.984Z,50.60
2017-06-24T22:33:23.273Z,51.00
2017-06-24T22:35:52.315Z,50.80
2017-06-24T22:38:20.603Z,50.80
2017-06-24T22:40:49.822Z,50.90
2017-06-24T22:43:18.108Z,51.10
2017-06-24T22:45:46.383Z,50.70
2017-06-24T22:48:14.666Z,50.30
2017-06-24T22:50:42.936Z,50.10
2017-06-24T22:53:11.224Z,50.30
2017-06-24T22:55:40.261Z,51.50
2017-06-24T22:58:08.543Z,51.20
2017-06-24T23:00:36.811Z,51.20
2017-06-24T23:03:05.083Z,50.90
2017-06-24T23:05:33.373Z,50.70
2017-06-24T23:08:01.639Z,50.90
2017-06-24T23:10:29.926Z,51.00
2017-06-24T23:12:58.191Z,50.90
2017-06-24T23:15:26.482Z,50.90
2017-06-24T23:17:54.891Z,50.90
2017-06-24T23:20:23.171Z,51.00
2017-06-24T23:22:51.437Z,51.10
2017-06-24T23:25:19.719Z,51.10
2017-06-24T23:27:47.987Z,51.30
2017-06-24T23:30:16.300Z,51.50
2017-06-24T23:32:44.567Z,51.70
2017-06-24T23:35:12.844Z,51.20
2017-06-24T23:37:41.128Z,51.50
2017-06-24T23:40:10.187Z,52.30
2017-06-24T23:42:38.467Z,51.80
2017-06-24T23:45:06.740Z,52.00
2017-06-24T23:47:35.027Z,51.80
2017-06-24T23:50:03.304Z,51.90
2017-06-24T23:52:31.605Z,51.90
2017-06-24T23:54:59.866Z,52.00
2017-06-24T23:57:28.153Z,51.80
2017-06-24T23:59:56.419Z,51.60
